• Join FlightAware (Why Join?)
  • Login
  • US Flag 
10:31PM EDT


 

Airport Tracker/Info


-or-


 

Live Flight TrackerFlight Track Log ✈ NGF88J ✈ 24-Sep-2013 ✈ KTXK - KDWH

Flight Track Log - Related Links

Times and Time Zones

All times are in EDT time to prevent confusion due to time zone crossing. See the NGF88J flight status page for this flight to view local times or setup timezone preferences in your user account.

Time Position Orientation Groundspeed Altitude Reporting Facility
EDT Latitude Longitude Course Direction KTS MPH feet Rate Location/Type
08:43PM 33.4100 -94.0292 209° Southwest 146 168 1,700  Level Fort Worth Center
08:44PM 33.3769 -94.0453 202° Southwest 139 160 2,000 240 Climbing Fort Worth Center
08:45PM 33.3358 -94.0669 204° Southwest 145 167 2,200 360 Climbing Fort Worth Center
08:46PM 33.2989 -94.0881 206° Southwest 152 175 2,800 480 Climbing Fort Worth Center
08:47PM 33.2155 -94.1049 207° Southwest  Level Estimated
08:47PM 33.2597 -94.1094 205° Southwest 152 175 3,200  Level Fort Worth Center
08:48PM 33.2228 -94.1308 206° Southwest 152 175 3,700 480 Climbing Fort Worth Center
08:48PM 33.2042 -94.1464 215° Southwest 160 184 4,000 480 Climbing Fort Worth Center
08:49PM 33.1858 -94.1544 200° South 152 175 4,200 480 Climbing Fort Worth Center
08:50PM 33.1508 -94.1781 209° Southwest 152 175 4,800 540 Climbing Fort Worth Center
08:51PM 33.1203 -94.2064 218° Southwest 137 158 5,300 480 Climbing Fort Worth Center
08:51PM 33.1181 -94.2017 119° Southeast 147 169 5,300 480 Level Fort Worth Center
08:52PM 33.0833 -94.2275 212° Southwest 141 162 5,800 480 Climbing Fort Worth Center
08:52PM 33.0831 -94.2250 98° East 147 169 5,800 480 Level Fort Worth Center
08:53PM 33.0503 -94.2511 214° Southwest 142 163 6,300 480 Climbing Fort Worth Center
08:53PM 33.0483 -94.2486 133° Southeast 147 169 6,300 540 Level Fort Worth Center
08:53PM 33.0175 -94.2694 210° Southwest 141 162 6,800 480 Climbing Fort Worth Center
08:54PM 33.0153 -94.2672 140° Southeast 141 162 6,800 420 Level Fort Worth Center
08:55PM 32.9825 -94.2881 208° Southwest 141 162 7,300 420 Climbing Fort Worth Center
08:56PM 32.9475 -94.3117 210° Southwest 141 162 7,700 360 Climbing Fort Worth Center
08:57PM 32.9125 -94.3325 207° Southwest 136 157 8,100 120 Climbing Fort Worth Center
08:58PM 32.8756 -94.3536 206° Southwest 141 162 8,000 -60 Descending Fort Worth Center
08:59PM 32.8344 -94.3822 210° Southwest 155 178 8,000  Level Fort Worth Center
09:00PM 32.7956 -94.4108 212° Southwest 160 184 8,000  Level Fort Worth Center
09:01PM 32.7544 -94.4369 208° Southwest 165 190 8,000  Level Fort Worth Center
09:02PM 32.7217 -94.4625 213° Southwest 165 190 8,000  Level Fort Worth Center
09:03PM 32.6742 -94.4914 207° Southwest 165 190 8,000  Level Fort Worth Center
09:04PM 32.6372 -94.5147 208° Southwest 171 197 8,000  Level Fort Worth Center
09:05PM 32.5856 -94.5411 203° Southwest 176 203 8,000  Level Fort Worth Center
09:06PM 32.5528 -94.5617 208° Southwest 171 197 8,000  Level Fort Worth Center
09:07PM 32.5011 -94.5906 205° Southwest 176 203 8,000  Level Fort Worth Center
09:08PM 32.4642 -94.6139 208° Southwest 176 203 8,000  Level Fort Worth Center
09:09PM 32.4167 -94.6400 205° Southwest 176 203 8,000  Level Fort Worth Center
09:10PM 32.3775 -94.6658 209° Southwest 176 203 8,000  Level Fort Worth Center
09:11PM 32.3258 -94.6919 203° Southwest 176 203 8,000  Level Fort Worth Center
09:12PM 32.2828 -94.7203 209° Southwest 176 203 8,000  Level Fort Worth Center
09:13PM 32.2436 -94.7483 211° Southwest 176 203 8,000  Level Fort Worth Center
09:14PM 32.2086 -94.7714 209° Southwest 176 203 8,000  Level Fort Worth Center
09:15PM 32.1636 -94.8097 216° Southwest 181 208 8,000  Level Fort Worth Center
09:16PM 32.1225 -94.8403 212° Southwest 181 208 8,000  Level Fort Worth Center
09:17PM 32.0769 -94.8683 208° Southwest 173 199 8,000  Level Fort Worth Center
09:18PM 32.0400 -94.8989 215° Southwest 168 193 8,000  Level Fort Worth Center
09:19PM 31.9967 -94.9269 209° Southwest 168 193 8,000  Level Fort Worth Center
09:20PM 31.9514 -94.9575 210° Southwest 173 199 8,000  Level Fort Worth Center
09:21PM 31.9081 -94.9833 207° Southwest 179 206 8,000  Level Fort Worth Center
09:22PM 31.8225 -95.0375 208° Southwest 182 209 8,000  Level Houston Center
09:24PM 31.7761 -95.0697 211° Southwest 179 206 8,000  Level Fort Worth Center
09:25PM 31.7328 -95.0953 207° Southwest 179 206 8,000  Level Fort Worth Center
09:27PM 31.6478 -95.1461 207° Southwest 176 203 8,000  Level Houston Center
09:28PM 31.6061 -95.1703 206° Southwest 170 196 8,000  Level Houston Center
09:29PM 31.5622 -95.1956 206° Southwest 174 200 8,000  Level Houston Center
09:30PM 31.5192 -95.2203 206° Southwest 173 199 8,000  Level Houston Center
09:31PM 31.4644 -95.2508 205° Southwest 181 208 8,000  Level Houston Center
09:32PM 31.4206 -95.2758 206° Southwest 178 205 8,000  Level Houston Center
09:33PM 31.3769 -95.3019 207° Southwest 178 205 8,000  Level Houston Center
09:34PM 31.3317 -95.3278 206° Southwest 180 207 8,000  Level Houston Center
09:35PM 31.2878 -95.3533 206° Southwest 177 204 8,000  Level Houston Center
09:36PM 31.2436 -95.3808 208° Southwest 180 207 8,000  Level Houston Center
09:37PM 31.1978 -95.4033 203° Southwest 181 208 8,000  Level Houston Center
09:38PM 31.1464 -95.4083 185° South 186 214 8,000  Level Houston Center
09:39PM 31.0956 -95.4122 184° South 185 213 8,000  Level Houston Center
09:40PM 31.0442 -95.4161 184° South 186 214 8,000 -120 Level Houston Center
09:41PM 30.9817 -95.4236 186° South 187 215 7,800 -240 Descending Houston Center
09:42PM 30.9272 -95.4297 185° South 194 223 7,600 -300 Descending Houston Center
09:43PM 30.8739 -95.4386 188° South 193 222 7,300 -300 Descending Houston Center
09:44PM 30.8178 -95.4456 186° South 200 230 7,000 -360 Descending Houston Center
09:45PM 30.7697 -95.4542 189° South 193 222 6,700 -300 Descending Houston Center
09:45PM 30.7650 -95.4539 177° South 196 226 6,700 -300 Level Houston Center
09:46PM 30.7139 -95.4633 189° South 192 221 6,400 -300 Descending Houston Center
09:46PM 30.7117 -95.4619 152° Southeast 194 223 6,400 -300 Level Houston Center
09:47PM 30.6600 -95.4722 190° South 191 220 6,100 -300 Descending Houston Center
09:47PM 30.6622 -95.4703 37° Northeast 188 216 6,100 -420 Level Houston Center
09:48PM 30.6081 -95.4786 188° South 192 221 5,700 -420 Descending Houston Center
09:48PM 30.6083 -95.4786 360° North 191 220 5,700 -420 Level Houston Center
09:49PM 30.5500 -95.4881 188° South 196 226 5,300 -420 Descending Houston Center
09:49PM 30.5536 -95.4872 11° North 196 226 5,300 -300 Level Houston Center
09:50PM 30.4983 -95.4967 188° South 192 221 5,000 -300 Descending Houston Center
09:50PM 30.5006 -95.4950 33° Northeast 194 223 5,000 -300 Level Houston Center
09:51PM 30.4517 -95.5033 188° South 181 208 4,700 -420 Descending Houston Center
09:52PM 30.4014 -95.5128 189° South 183 211 4,200 -540 Descending Houston Center
09:53PM 30.3408 -95.5214 187° South 182 209 3,700 -480 Descending Houston Center
09:54PM 30.2914 -95.5294 188° South 181 208 3,300 -420 Descending Houston Center
09:55PM 30.2419 -95.5403 191° South 181 208 2,900 -480 Descending Houston Center
09:55PM 30.2358 -95.5425 197° South 179 206 2,800 -600 Descending Houston Center
09:56PM 30.1928 -95.5525 191° South 176 203 2,300 -540 Descending Houston Center
09:56PM 30.1944 -95.5525 360° North 176 203 2,300 -840 Level Houston Center
09:57PM 30.1436 -95.5656 193° South 171 197 1,500 -540 Descending Houston Center
09:57PM 30.1433 -95.5692 265° West 175 201 1,800 -720 Climbing Houston Center
09:58PM 30.1031 -95.5603 169° South 168 193 800 -1,020 Descending Houston Center
09:58PM 30.0967 -95.5592 171° South 142 163 700 -240 Descending Houston Center
09:59PM 30.0694 -95.5533 169° South 156 180 600 -120 Descending Houston Center